sensor_id;sensor_type;location;lat;lon;timestamp;pressure;altitude;pressure_sealevel;temperature;humidity
21433;BME280;18592;49.708;10.900;2023-09-30T00:01:40;99252.31;;;21.71;47.16
21433;BME280;18592;49.708;10.900;2023-09-30T00:03:41;99260.94;;;21.70;47.18
21433;BME280;18592;49.708;10.900;2023-09-30T00:05:43;99250.13;;;21.68;47.42
21433;BME280;18592;49.708;10.900;2023-09-30T00:07:45;99246.84;;;21.66;47.14
21433;BME280;18592;49.708;10.900;2023-09-30T00:09:46;99248.28;;;21.64;47.46
21433;BME280;18592;49.708;10.900;2023-09-30T00:11:48;99257.53;;;21.59;47.58
21433;BME280;18592;49.708;10.900;2023-09-30T00:13:50;99253.09;;;21.58;47.54
21433;BME280;18592;49.708;10.900;2023-09-30T00:15:52;99254.03;;;21.53;47.25
21433;BME280;18592;49.708;10.900;2023-09-30T00:17:53;99261.84;;;21.51;47.49
21433;BME280;18592;49.708;10.900;2023-09-30T00:19:55;99267.72;;;21.50;47.69
21433;BME280;18592;49.708;10.900;2023-09-30T00:21:57;99258.84;;;21.48;47.66
21433;BME280;18592;49.708;10.900;2023-09-30T00:23:59;99252.78;;;21.46;47.57
21433;BME280;18592;49.708;10.900;2023-09-30T00:26:00;99258.34;;;21.46;47.45
21433;BME280;18592;49.708;10.900;2023-09-30T00:28:02;99258.13;;;21.42;47.73
21433;BME280;18592;49.708;10.900;2023-09-30T00:30:04;99256.47;;;21.41;47.77
21433;BME280;18592;49.708;10.900;2023-09-30T00:32:08;99254.81;;;21.40;47.85
21433;BME280;18592;49.708;10.900;2023-09-30T00:34:11;99254.81;;;21.40;47.96
21433;BME280;18592;49.708;10.900;2023-09-30T00:36:12;99254.81;;;21.40;47.66
21433;BME280;18592;49.708;10.900;2023-09-30T00:38:14;99256.47;;;21.41;47.94
21433;BME280;18592;49.708;10.900;2023-09-30T00:40:16;99254.03;;;21.40;47.73
21433;BME280;18592;49.708;10.900;2023-09-30T00:42:17;99252.88;;;21.41;47.84
21433;BME280;18592;49.708;10.900;2023-09-30T00:44:19;99257.91;;;21.39;47.96
21433;BME280;18592;49.708;10.900;2023-09-30T00:46:37;99257.69;;;21.35;48.41
21433;BME280;18592;49.708;10.900;2023-09-30T00:48:39;99256.88;;;21.35;48.20
21433;BME280;18592;49.708;10.900;2023-09-30T00:50:41;99260.78;;;21.34;48.17
21433;BME280;18592;49.708;10.900;2023-09-30T00:52:43;99270.22;;;21.33;48.26
21433;BME280;18592;49.708;10.900;2023-09-30T00:54:47;99260.78;;;21.34;48.28
21433;BME280;18592;49.708;10.900;2023-09-30T00:56:50;99258.31;;;21.32;48.23
21433;BME280;18592;49.708;10.900;2023-09-30T00:58:53;99260.25;;;21.32;48.18
21433;BME280;18592;49.708;10.900;2023-09-30T01:00:56;99261.88;;;21.33;48.30
21433;BME280;18592;49.708;10.900;2023-09-30T01:02:58;99267.97;;;21.35;48.36
21433;BME280;18592;49.708;10.900;2023-09-30T01:05:05;99269.09;;;21.34;48.54
21433;BME280;18592;49.708;10.900;2023-09-30T01:07:12;99271.88;;;21.34;48.49
21433;BME280;18592;49.708;10.900;2023-09-30T01:09:13;99271.88;;;21.34;48.77
21433;BME280;18592;49.708;10.900;2023-09-30T01:11:15;99270.75;;;21.35;48.64
21433;BME280;18592;49.708;10.900;2023-09-30T01:13:33;99269.59;;;21.36;48.57
21433;BME280;18592;49.708;10.900;2023-09-30T01:15:36;99273.72;;;21.38;48.80
21433;BME280;18592;49.708;10.900;2023-09-30T01:17:38;99271.28;;;21.37;49.03
21433;BME280;18592;49.708;10.900;2023-09-30T01:19:40;99271.78;;;21.39;48.64
21433;BME280;18592;49.708;10.900;2023-09-30T01:21:44;99273.44;;;21.40;48.93
21433;BME280;18592;49.708;10.900;2023-09-30T01:23:59;99272.91;;;21.38;48.77
21433;BME280;18592;49.708;10.900;2023-09-30T01:26:03;99274.25;;;21.40;48.95
21433;BME280;18592;49.708;10.900;2023-09-30T01:28:09;99276.22;;;21.40;48.86
21433;BME280;18592;49.708;10.900;2023-09-30T01:30:11;99281.13;;;21.43;49.15
21433;BME280;18592;49.708;10.900;2023-09-30T01:32:15;99283.09;;;21.42;48.91
21433;BME280;18592;49.708;10.900;2023-09-30T01:34:18;99281.66;;;21.45;48.82
21433;BME280;18592;49.708;10.900;2023-09-30T01:36:26;99284.44;;;21.45;49.39
21433;BME280;18592;49.708;10.900;2023-09-30T01:38:27;99282.69;;;21.49;49.28
21433;BME280;18592;49.708;10.900;2023-09-30T01:40:29;99285.16;;;21.50;48.90
21433;BME280;18592;49.708;10.900;2023-09-30T01:42:31;99282.59;;;21.54;49.18
21433;BME280;18592;49.708;10.900;2023-09-30T01:44:33;99285.38;;;21.54;49.31
21433;BME280;18592;49.708;10.900;2023-09-30T01:46:34;99285.69;;;21.52;49.47
21433;BME280;18592;49.708;10.900;2023-09-30T01:48:36;99284.88;;;21.52;49.37
21433;BME280;18592;49.708;10.900;2023-09-30T01:50:38;99284.56;;;21.53;49.59
21433;BME280;18592;49.708;10.900;2023-09-30T01:52:40;99290.41;;;21.52;49.96
21433;BME280;18592;49.708;10.900;2023-09-30T01:54:42;99290.41;;;21.52;50.15
21433;BME280;18592;49.708;10.900;2023-09-30T01:56:43;99288.16;;;21.54;49.91
21433;BME280;18592;49.708;10.900;2023-09-30T01:58:45;99293.19;;;21.52;49.95
21433;BME280;18592;49.708;10.900;2023-09-30T02:00:48;99290.41;;;21.52;50.16
21433;BME280;18592;49.708;10.900;2023-09-30T02:02:50;99298.44;;;21.53;50.25
21433;BME280;18592;49.708;10.900;2023-09-30T02:04:58;99297.59;;;21.53;50.33
21433;BME280;18592;49.708;10.900;2023-09-30T02:07:00;99297.59;;;21.53;50.32
21433;BME280;18592;49.708;10.900;2023-09-30T02:09:16;99299.25;;;21.54;50.44
21433;BME280;18592;49.708;10.900;2023-09-30T02:11:29;99294.53;;;21.55;50.41
21433;BME280;18592;49.708;10.900;2023-09-30T02:13:42;99294.81;;;21.53;50.43
21433;BME280;18592;49.708;10.900;2023-09-30T02:15:49;99301.72;;;21.56;50.66
21433;BME280;18592;49.708;10.900;2023-09-30T02:17:55;99307.06;;;21.52;50.54
21433;BME280;18592;49.708;10.900;2023-09-30T02:19:59;99308.69;;;21.53;50.70
21433;BME280;18592;49.708;10.900;2023-09-30T02:22:02;99305.91;;;21.53;50.52
21433;BME280;18592;49.708;10.900;2023-09-30T02:24:04;99311.47;;;21.53;50.81
21433;BME280;18592;49.708;10.900;2023-09-30T02:26:09;99314.25;;;21.53;50.57
21433;BME280;18592;49.708;10.900;2023-09-30T02:28:10;99306.22;;;21.51;50.90
21433;BME280;18592;49.708;10.900;2023-09-30T02:30:12;99310.97;;;21.51;50.99
21433;BME280;18592;49.708;10.900;2023-09-30T02:32:16;99319.00;;;21.52;50.98
21433;BME280;18592;49.708;10.900;2023-09-30T02:34:18;99318.16;;;21.52;50.89
21433;BME280;18592;49.708;10.900;2023-09-30T02:36:31;99320.94;;;21.52;50.99
21433;BME280;18592;49.708;10.900;2023-09-30T02:38:33;99331.22;;;21.51;50.62
21433;BME280;18592;49.708;10.900;2023-09-30T02:40:36;99340.97;;;21.49;50.62
21433;BME280;18592;49.708;10.900;2023-09-30T02:45:30;99352.56;;;21.51;50.54
21433;BME280;18592;49.708;10.900;2023-09-30T02:47:32;99354.00;;;21.48;50.78
21433;BME280;18592;49.708;10.900;2023-09-30T02:49:36;99342.06;;;21.48;50.65
21433;BME280;18592;49.708;10.900;2023-09-30T02:51:38;99352.38;;;21.47;50.41
21433;BME280;18592;49.708;10.900;2023-09-30T02:53:40;99342.72;;;21.45;50.94
21433;BME280;18592;49.708;10.900;2023-09-30T02:55:45;99347.72;;;21.43;50.93
21433;BME280;18592;49.708;10.900;2023-09-30T02:57:49;99343.81;;;21.44;50.81
21433;BME280;18592;49.708;10.900;2023-09-30T02:59:51;99347.72;;;21.43;51.00
21433;BME280;18592;49.708;10.900;2023-09-30T03:01:53;99354.41;;;21.42;50.94
21433;BME280;18592;49.708;10.900;2023-09-30T03:03:56;99343.59;;;21.40;50.54
21433;BME280;18592;49.708;10.900;2023-09-30T03:06:00;99350.81;;;21.41;50.70
21433;BME280;18592;49.708;10.900;2023-09-30T03:08:04;99358.88;;;21.38;50.79
21433;BME280;18592;49.708;10.900;2023-09-30T03:10:06;99350.06;;;21.36;50.80
21433;BME280;18592;49.708;10.900;2023-09-30T03:12:10;99358.88;;;21.38;50.41
21433;BME280;18592;49.708;10.900;2023-09-30T03:14:11;99361.16;;;21.36;50.53
21433;BME280;18592;49.708;10.900;2023-09-30T03:16:13;99358.38;;;21.36;50.53
21433;BME280;18592;49.708;10.900;2023-09-30T03:18:16;99361.22;;;21.31;50.63
21433;BME280;18592;49.708;10.900;2023-09-30T03:20:24;99363.72;;;21.32;50.86
21433;BME280;18592;49.708;10.900;2023-09-30T03:22:26;99368.94;;;21.34;50.64
21433;BME280;18592;49.708;10.900;2023-09-30T03:24:28;99383.41;;;21.31;50.93
21433;BME280;18592;49.708;10.900;2023-09-30T03:26:31;99383.22;;;21.27;50.57
21433;BME280;18592;49.708;10.900;2023-09-30T03:28:38;99389.63;;;21.23;50.90
21433;BME280;18592;49.708;10.900;2023-09-30T03:30:40;99381.13;;;21.19;51.13
21433;BME280;18592;49.708;10.900;2023-09-30T03:32:42;99393.31;;;21.18;51.07
21433;BME280;18592;49.708;10.900;2023-09-30T03:34:44;99388.91;;;21.17;51.22
21433;BME280;18592;49.708;10.900;2023-09-30T03:36:47;99383.66;;;21.16;51.34
21433;BME280;18592;49.708;10.900;2023-09-30T03:38:52;99384.78;;;21.15;51.18
21433;BME280;18592;49.708;10.900;2023-09-30T03:40:56;99395.06;;;21.14;51.16
21433;BME280;18592;49.708;10.900;2023-09-30T03:43:01;99394.81;;;21.11;51.17
21433;BME280;18592;49.708;10.900;2023-09-30T03:45:02;99399.53;;;21.10;51.09
21433;BME280;18592;49.708;10.900;2023-09-30T03:47:05;99397.91;;;21.09;50.82
21433;BME280;18592;49.708;10.900;2023-09-30T03:49:08;99399.56;;;21.05;51.32
21433;BME280;18592;49.708;10.900;2023-09-30T03:51:14;99404.38;;;21.00;51.69
21433;BME280;18592;49.708;10.900;2023-09-30T03:53:22;99402.13;;;21.02;51.62
21433;BME280;18592;49.708;10.900;2023-09-30T03:55:27;99402.41;;;21.00;51.56
21433;BME280;18592;49.708;10.900;2023-09-30T03:57:34;99399.94;;;20.99;51.64
21433;BME280;18592;49.708;10.900;2023-09-30T03:59:41;99398.84;;;21.00;51.42
21433;BME280;18592;49.708;10.900;2023-09-30T04:01:43;99403.31;;;20.96;51.45
21433;BME280;18592;49.708;10.900;2023-09-30T04:03:48;99405.56;;;20.94;51.30
21433;BME280;18592;49.708;10.900;2023-09-30T04:05:50;99404.75;;;20.93;51.21
21433;BME280;18592;49.708;10.900;2023-09-30T04:07:52;99405.31;;;20.90;51.53
21433;BME280;18592;49.708;10.900;2023-09-30T04:09:57;99401.75;;;20.89;51.58
21433;BME280;18592;49.708;10.900;2023-09-30T04:12:09;99395.97;;;20.86;51.65
21433;BME280;18592;49.708;10.900;2023-09-30T04:14:14;99399.84;;;20.85;51.59
21433;BME280;18592;49.708;10.900;2023-09-30T04:16:18;99406.53;;;20.84;51.50
21433;BME280;18592;49.708;10.900;2023-09-30T04:18:21;99417.63;;;20.84;51.67
21433;BME280;18592;49.708;10.900;2023-09-30T04:20:23;99414.34;;;20.82;51.86
21433;BME280;18592;49.708;10.900;2023-09-30T04:22:28;99419.56;;;20.83;51.51
21433;BME280;18592;49.708;10.900;2023-09-30T04:24:31;99422.34;;;20.83;51.50
21433;BME280;18592;49.708;10.900;2023-09-30T04:26:33;99420.97;;;20.81;51.56
21433;BME280;18592;49.708;10.900;2023-09-30T04:28:34;99421.28;;;20.79;51.80
21433;BME280;18592;49.708;10.900;2023-09-30T04:30:39;99425.75;;;20.75;52.11
21433;BME280;18592;49.708;10.900;2023-09-30T04:32:43;99424.94;;;20.75;51.52
21433;BME280;18592;49.708;10.900;2023-09-30T04:34:45;99422.47;;;20.73;51.77
21433;BME280;18592;49.708;10.900;2023-09-30T04:36:48;99423.88;;;20.71;51.98
21433;BME280;18592;49.708;10.900;2023-09-30T04:38:50;99423.38;;;20.69;52.17
21433;BME280;18592;49.708;10.900;2023-09-30T04:40:52;99436.06;;;20.70;51.69
21433;BME280;18592;49.708;10.900;2023-09-30T04:43:01;99437.50;;;20.67;51.80
21433;BME280;18592;49.708;10.900;2023-09-30T04:45:03;99439.75;;;20.65;52.16
21433;BME280;18592;49.708;10.900;2023-09-30T04:47:08;99433.94;;;20.62;51.89
21433;BME280;18592;49.708;10.900;2023-09-30T04:49:09;99435.91;;;20.61;52.07
21433;BME280;18592;49.708;10.900;2023-09-30T04:51:11;99439.81;;;20.60;51.96
21433;BME280;18592;49.708;10.900;2023-09-30T04:53:14;99440.38;;;20.57;52.09
21433;BME280;18592;49.708;10.900;2023-09-30T04:55:21;99432.91;;;20.58;52.34
21433;BME280;18592;49.708;10.900;2023-09-30T04:57:23;99438.75;;;20.56;52.46
21433;BME280;18592;49.708;10.900;2023-09-30T04:59:28;99442.63;;;20.55;51.98
21433;BME280;18592;49.708;10.900;2023-09-30T05:01:33;99443.75;;;20.54;52.29
21433;BME280;18592;49.708;10.900;2023-09-30T05:03:40;99446.50;;;20.54;52.24
21433;BME280;18592;49.708;10.900;2023-09-30T05:05:43;99453.72;;;20.55;52.28
21433;BME280;18592;49.708;10.900;2023-09-30T05:07:50;99461.78;;;20.52;52.56
21433;BME280;18592;49.708;10.900;2023-09-30T05:09:51;99462.59;;;20.52;52.28
21433;BME280;18592;49.708;10.900;2023-09-30T05:11:55;99460.41;;;20.49;52.08
21433;BME280;18592;49.708;10.900;2023-09-30T05:13:56;99465.94;;;20.49;52.35
21433;BME280;18592;49.708;10.900;2023-09-30T05:15:58;99468.50;;;20.46;52.24
21433;BME280;18592;49.708;10.900;2023-09-30T05:18:04;99459.38;;;20.45;52.43
21433;BME280;18592;49.708;10.900;2023-09-30T05:20:06;99461.03;;;20.46;52.55
21433;BME280;18592;49.708;10.900;2023-09-30T05:22:08;99455.75;;;20.45;52.45
21433;BME280;18592;49.708;10.900;2023-09-30T05:24:15;99457.16;;;20.42;52.51
21433;BME280;18592;49.708;10.900;2023-09-30T05:26:23;99461.88;;;20.42;52.45
21433;BME280;18592;49.708;10.900;2023-09-30T05:28:24;99472.97;;;20.42;52.69
21433;BME280;18592;49.708;10.900;2023-09-30T05:30:26;99467.72;;;20.40;52.40
21433;BME280;18592;49.708;10.900;2023-09-30T05:32:31;99474.69;;;20.38;52.66
21433;BME280;18592;49.708;10.900;2023-09-30T05:34:33;99478.28;;;20.38;52.55
21433;BME280;18592;49.708;10.900;2023-09-30T05:36:38;99483.81;;;20.38;52.51
21433;BME280;18592;49.708;10.900;2023-09-30T05:38:42;99489.63;;;20.37;52.64
21433;BME280;18592;49.708;10.900;2023-09-30T05:40:44;99482.47;;;20.36;52.92
21433;BME280;18592;49.708;10.900;2023-09-30T05:42:45;99479.44;;;20.32;52.65
21433;BME280;18592;49.708;10.900;2023-09-30T05:44:49;99482.19;;;20.32;52.58
21433;BME280;18592;49.708;10.900;2023-09-30T05:47:05;99484.44;;;20.30;52.77
21433;BME280;18592;49.708;10.900;2023-09-30T05:49:06;99491.94;;;20.30;52.96
21433;BME280;18592;49.708;10.900;2023-09-30T05:51:12;99493.84;;;20.29;53.18
21433;BME280;18592;49.708;10.900;2023-09-30T05:53:17;99488.09;;;20.25;53.20
21433;BME280;18592;49.708;10.900;2023-09-30T05:55:19;99490.88;;;20.25;53.25
21433;BME280;18592;49.708;10.900;2023-09-30T05:57:24;99492.50;;;20.26;53.23
21433;BME280;18592;49.708;10.900;2023-09-30T05:59:27;99494.47;;;20.26;53.56
21433;BME280;18592;49.708;10.900;2023-09-30T06:01:29;99501.63;;;20.27;53.46
21433;BME280;18592;49.708;10.900;2023-09-30T06:03:32;99499.19;;;20.25;53.21
21433;BME280;18592;49.708;10.900;2023-09-30T06:05:45;99508.59;;;20.24;53.36
21433;BME280;18592;49.708;10.900;2023-09-30T06:07:48;99511.63;;;20.28;53.18
21433;BME280;18592;49.708;10.900;2023-09-30T06:09:50;99519.09;;;20.27;53.37
21433;BME280;18592;49.708;10.900;2023-09-30T06:11:54;99516.06;;;20.24;53.53
21433;BME280;18592;49.708;10.900;2023-09-30T06:13:57;99509.41;;;20.25;53.46
21433;BME280;18592;49.708;10.900;2023-09-30T06:16:04;99502.22;;;20.24;53.58
21433;BME280;18592;49.708;10.900;2023-09-30T06:18:11;99509.72;;;20.23;53.50
21433;BME280;18592;49.708;10.900;2023-09-30T06:20:16;99515.78;;;20.25;53.27
21433;BME280;18592;49.708;10.900;2023-09-30T06:22:19;99524.94;;;20.26;53.18
21433;BME280;18592;49.708;10.900;2023-09-30T06:24:20;99517.41;;;20.26;53.28
21433;BME280;18592;49.708;10.900;2023-09-30T06:26:25;99521.34;;;20.25;53.62
21433;BME280;18592;49.708;10.900;2023-09-30T06:28:28;99522.97;;;20.26;53.36
21433;BME280;18592;49.708;10.900;2023-09-30T06:30:32;99524.31;;;20.29;53.27
21433;BME280;18592;49.708;10.900;2023-09-30T06:32:35;99527.94;;;20.30;53.42
21433;BME280;18592;49.708;10.900;2023-09-30T06:34:37;99526.28;;;20.29;53.53
21433;BME280;18592;49.708;10.900;2023-09-30T06:36:39;99519.91;;;20.28;53.25
21433;BME280;18592;49.708;10.900;2023-09-30T06:38:46;99524.63;;;20.27;53.52
21433;BME280;18592;49.708;10.900;2023-09-30T06:40:59;99538.16;;;20.29;53.15
21433;BME280;18592;49.708;10.900;2023-09-30T06:43:12;99538.47;;;20.27;53.04
21433;BME280;18592;49.708;10.900;2023-09-30T06:45:13;99543.13;;;20.32;53.04
21433;BME280;18592;49.708;10.900;2023-09-30T06:47:18;99545.63;;;20.34;52.78
21433;BME280;18592;49.708;10.900;2023-09-30T06:49:22;99537.31;;;20.34;52.86
21433;BME280;18592;49.708;10.900;2023-09-30T06:51:25;99534.78;;;20.37;52.81
21433;BME280;18592;49.708;10.900;2023-09-30T06:53:32;99541.09;;;20.43;53.10
21433;BME280;18592;49.708;10.900;2023-09-30T06:55:42;99540.22;;;20.47;52.78
21433;BME280;18592;49.708;10.900;2023-09-30T06:57:47;99537.97;;;20.49;52.86
21433;BME280;18592;49.708;10.900;2023-09-30T06:59:54;99547.66;;;20.52;52.18
21433;BME280;18592;49.708;10.900;2023-09-30T07:01:56;99548.44;;;20.57;52.12
21433;BME280;18592;49.708;10.900;2023-09-30T07:04:01;99550.94;;;20.59;52.33
21433;BME280;18592;49.708;10.900;2023-09-30T07:06:06;99556.47;;;20.59;52.31
21433;BME280;18592;49.708;10.900;2023-09-30T07:08:09;99558.41;;;20.58;52.38
21433;BME280;18592;49.708;10.900;2023-09-30T07:10:11;99560.03;;;20.59;52.42
21433;BME280;18592;49.708;10.900;2023-09-30T07:12:14;99567.25;;;20.60;52.47
21433;BME280;18592;49.708;10.900;2023-09-30T07:14:17;99572.50;;;20.62;52.59
21433;BME280;18592;49.708;10.900;2023-09-30T07:16:21;99584.34;;;20.67;52.54
21433;BME280;18592;49.708;10.900;2023-09-30T07:18:36;99580.72;;;20.72;52.50
21433;BME280;18592;49.708;10.900;2023-09-30T07:20:41;99583.09;;;20.83;52.62
21433;BME280;18592;49.708;10.900;2023-09-30T07:22:43;99583.28;;;20.92;52.46
21433;BME280;18592;49.708;10.900;2023-09-30T07:24:59;99584.00;;;21.03;52.32
21433;BME280;18592;49.708;10.900;2023-09-30T07:27:01;99583.69;;;21.09;52.06
21433;BME280;18592;49.708;10.900;2023-09-30T07:29:15;99583.56;;;21.19;52.33
21433;BME280;18592;49.708;10.900;2023-09-30T07:31:22;99592.34;;;21.26;52.07
21433;BME280;18592;49.708;10.900;2023-09-30T07:33:24;99600.03;;;21.34;52.02
21433;BME280;18592;49.708;10.900;2023-09-30T07:35:29;99597.19;;;21.39;52.12
21433;BME280;18592;49.708;10.900;2023-09-30T07:37:31;99598.47;;;21.47;52.09
21433;BME280;18592;49.708;10.900;2023-09-30T07:39:47;99599.47;;;21.56;51.84
21433;BME280;18592;49.708;10.900;2023-09-30T07:41:50;99603.25;;;21.65;51.90
21433;BME280;18592;49.708;10.900;2023-09-30T07:43:53;99598.16;;;21.72;51.65
21433;BME280;18592;49.708;10.900;2023-09-30T07:45:58;99596.94;;;21.78;51.67
21433;BME280;18592;49.708;10.900;2023-09-30T07:48:00;99598.28;;;21.81;51.66
21433;BME280;18592;49.708;10.900;2023-09-30T07:50:06;99595.22;;;21.82;51.48
21433;BME280;18592;49.708;10.900;2023-09-30T07:52:20;99596.56;;;21.85;51.37
21433;BME280;18592;49.708;10.900;2023-09-30T07:54:30;99594.03;;;21.88;51.38
21433;BME280;18592;49.708;10.900;2023-09-30T07:56:32;99587.38;;;21.89;51.31
21433;BME280;18592;49.708;10.900;2023-09-30T07:58:34;99595.09;;;21.92;51.12
21433;BME280;18592;49.708;10.900;2023-09-30T08:00:38;99602.34;;;21.93;51.13
21433;BME280;18592;49.708;10.900;2023-09-30T08:02:46;99601.69;;;21.96;51.00
21433;BME280;18592;49.708;10.900;2023-09-30T08:04:55;99604.19;;;21.98;51.31
21433;BME280;18592;49.708;10.900;2023-09-30T08:06:57;99605.56;;;22.00;50.93
21433;BME280;18592;49.708;10.900;2023-09-30T08:09:01;99606.31;;;22.06;51.20
21433;BME280;18592;49.708;10.900;2023-09-30T08:11:06;99612.31;;;22.13;51.16
21433;BME280;18592;49.708;10.900;2023-09-30T08:13:08;99617.63;;;22.28;51.36
21433;BME280;18592;49.708;10.900;2023-09-30T08:15:11;99614.88;;;22.42;51.62
21433;BME280;18592;49.708;10.900;2023-09-30T08:17:14;99619.59;;;22.60;51.98
21433;BME280;18592;49.708;10.900;2023-09-30T08:19:16;99623.19;;;22.79;51.79
21433;BME280;18592;49.708;10.900;2023-09-30T08:21:18;99621.16;;;22.98;51.88
21433;BME280;18592;49.708;10.900;2023-09-30T08:23:20;99624.69;;;23.17;51.85
21433;BME280;18592;49.708;10.900;2023-09-30T08:25:25;99618.19;;;23.35;51.81
21433;BME280;18592;49.708;10.900;2023-09-30T08:27:30;99621.88;;;23.50;51.45
21433;BME280;18592;49.708;10.900;2023-09-30T08:29:36;99622.78;;;23.59;51.05
21433;BME280;18592;49.708;10.900;2023-09-30T08:31:38;99625.94;;;23.66;50.78
21433;BME280;18592;49.708;10.900;2023-09-30T08:33:40;99630.81;;;23.74;50.49
21433;BME280;18592;49.708;10.900;2023-09-30T08:35:44;99625.63;;;23.81;50.43
21433;BME280;18592;49.708;10.900;2023-09-30T08:37:46;99619.94;;;23.86;50.34
21433;BME280;18592;49.708;10.900;2023-09-30T08:39:47;99623.78;;;23.90;49.72
21433;BME280;18592;49.708;10.900;2023-09-30T08:41:52;99617.59;;;23.93;50.00
21433;BME280;18592;49.708;10.900;2023-09-30T08:43:55;99617.47;;;23.98;49.90
21433;BME280;18592;49.708;10.900;2023-09-30T08:46:02;99613.13;;;24.06;50.33
21433;BME280;18592;49.708;10.900;2023-09-30T08:48:11;99605.69;;;24.15;50.39
21433;BME280;18592;49.708;10.900;2023-09-30T08:50:16;99597.91;;;24.25;49.67
21433;BME280;18592;49.708;10.900;2023-09-30T08:52:18;99600.25;;;24.32;49.82
21433;BME280;18592;49.708;10.900;2023-09-30T08:54:22;99612.44;;;24.36;49.29
21433;BME280;18592;49.708;10.900;2023-09-30T08:56:27;99621.47;;;24.41;48.82
21433;BME280;18592;49.708;10.900;2023-09-30T08:58:29;99613.31;;;24.45;49.04
21433;BME280;18592;49.708;10.900;2023-09-30T09:00:30;99611.84;;;24.47;48.78
21433;BME280;18592;49.708;10.900;2023-09-30T09:02:35;99601.72;;;24.51;49.38
21433;BME280;18592;49.708;10.900;2023-09-30T09:04:37;99603.72;;;24.59;49.38
21433;BME280;18592;49.708;10.900;2023-09-30T09:06:39;99605.13;;;24.71;49.68
21433;BME280;18592;49.708;10.900;2023-09-30T09:08:44;99594.56;;;24.81;49.93
21433;BME280;18592;49.708;10.900;2023-09-30T09:10:57;99598.41;;;24.94;49.88
21433;BME280;18592;49.708;10.900;2023-09-30T09:13:08;99593.03;;;25.06;49.59
21433;BME280;18592;49.708;10.900;2023-09-30T09:15:22;99594.91;;;25.19;49.62
21433;BME280;18592;49.708;10.900;2023-09-30T09:17:45;99599.56;;;25.32;49.48
21433;BME280;18592;49.708;10.900;2023-09-30T09:19:59;99596.69;;;25.46;49.40
21433;BME280;18592;49.708;10.900;2023-09-30T09:22:01;99596.88;;;25.58;49.14
21433;BME280;18592;49.708;10.900;2023-09-30T09:24:26;99592.16;;;25.67;48.22
21433;BME280;18592;49.708;10.900;2023-09-30T09:26:31;99596.59;;;25.76;48.13
21433;BME280;18592;49.708;10.900;2023-09-30T09:28:43;99598.25;;;25.86;48.44
21433;BME280;18592;49.708;10.900;2023-09-30T09:30:55;99597.94;;;25.96;48.16
21433;BME280;18592;49.708;10.900;2023-09-30T09:35:12;99598.81;;;26.14;48.02
21433;BME280;18592;49.708;10.900;2023-09-30T09:37:23;99601.63;;;26.22;47.34
21433;BME280;18592;49.708;10.900;2023-09-30T09:39:31;99598.00;;;26.30;47.24
21433;BME280;18592;49.708;10.900;2023-09-30T09:41:59;99596.34;;;26.38;46.28
21433;BME280;18592;49.708;10.900;2023-09-30T09:44:08;99589.94;;;26.46;46.61
21433;BME280;18592;49.708;10.900;2023-09-30T09:46:18;99603.06;;;26.54;46.57
21433;BME280;18592;49.708;10.900;2023-09-30T09:48:28;99593.38;;;26.60;46.45
21433;BME280;18592;49.708;10.900;2023-09-30T09:50:43;99592.19;;;26.70;46.43
21433;BME280;18592;49.708;10.900;2023-09-30T09:52:56;99593.38;;;26.77;46.06
21433;BME280;18592;49.708;10.900;2023-09-30T09:55:10;99599.78;;;26.86;45.58
21433;BME280;18592;49.708;10.900;2023-09-30T09:57:16;99597.59;;;26.92;45.20
21433;BME280;18592;49.708;10.900;2023-09-30T09:59:23;99598.91;;;26.94;44.02
21433;BME280;18592;49.708;10.900;2023-09-30T10:01:27;99593.31;;;26.94;43.56
21433;BME280;18592;49.708;10.900;2023-09-30T10:03:29;99604.84;;;26.93;42.90
21433;BME280;18592;49.708;10.900;2023-09-30T10:05:31;99606.81;;;26.92;42.74
21433;BME280;18592;49.708;10.900;2023-09-30T10:07:35;99608.31;;;26.90;42.37
21433;BME280;18592;49.708;10.900;2023-09-30T10:10:12;99612.47;;;26.84;41.30
21433;BME280;18592;49.708;10.900;2023-09-30T10:12:16;99615.91;;;26.81;42.25
21433;BME280;18592;49.708;10.900;2023-09-30T10:14:31;99613.25;;;26.76;41.51
21433;BME280;18592;49.708;10.900;2023-09-30T10:16:47;99610.28;;;26.72;41.95
21433;BME280;18592;49.708;10.900;2023-09-30T10:21:09;99617.72;;;26.68;42.64
21433;BME280;18592;49.708;10.900;2023-09-30T10:25:35;99624.13;;;26.60;42.48
21433;BME280;18592;49.708;10.900;2023-09-30T10:27:51;99621.16;;;26.57;42.38
21433;BME280;18592;49.708;10.900;2023-09-30T10:29:56;99624.47;;;26.50;42.16
21433;BME280;18592;49.708;10.900;2023-09-30T10:32:06;99623.50;;;26.46;42.42
21433;BME280;18592;49.708;10.900;2023-09-30T10:34:20;99616.09;;;26.41;42.42
21433;BME280;18592;49.708;10.900;2023-09-30T10:36:27;99627.94;;;26.38;42.61
21433;BME280;18592;49.708;10.900;2023-09-30T10:38:38;99627.44;;;26.36;42.42
21433;BME280;18592;49.708;10.900;2023-09-30T10:40:53;99620.03;;;26.32;42.33
21433;BME280;18592;49.708;10.900;2023-09-30T10:42:58;99621.22;;;26.31;42.45
21433;BME280;18592;49.708;10.900;2023-09-30T10:47:51;99618.22;;;26.19;42.21
21433;BME280;18592;49.708;10.900;2023-09-30T10:50:02;99616.09;;;26.16;42.52
21433;BME280;18592;49.708;10.900;2023-09-30T10:52:10;99614.78;;;26.13;42.51
21433;BME280;18592;49.708;10.900;2023-09-30T10:54:13;99606.53;;;26.08;42.42
21433;BME280;18592;49.708;10.900;2023-09-30T10:56:15;99610.47;;;26.07;41.99
21433;BME280;18592;49.708;10.900;2023-09-30T10:58:17;99604.69;;;26.04;41.79
21433;BME280;18592;49.708;10.900;2023-09-30T11:00:21;99608.97;;;26.01;41.82
21433;BME280;18592;49.708;10.900;2023-09-30T11:02:29;99600.44;;;25.98;41.57
21433;BME280;18592;49.708;10.900;2023-09-30T11:04:29;99592.34;;;25.96;41.97
21433;BME280;18592;49.708;10.900;2023-09-30T11:06:44;99584.94;;;25.92;42.05